sensor_id;sensor_type;location;lat;lon;timestamp;pressure;altitude;pressure_sealevel;temperature;humidity
54439;BME280;40347;53.848;27.498;2023-03-31T00:01:04;1004.5;;;4.5;54.9
54439;BME280;40347;53.848;27.498;2023-03-31T00:05:53;1004.4;;;4.6;54.8
54439;BME280;40347;53.848;27.498;2023-03-31T00:10:58;1004.3;;;4.6;54.8
54439;BME280;40347;53.848;27.498;2023-03-31T00:15:54;1004.3;;;4.7;54.9
54439;BME280;40347;53.848;27.498;2023-03-31T00:21:06;1004.3;;;4.7;54.8
54439;BME280;40347;53.848;27.498;2023-03-31T00:25:50;1004.3;;;4.7;54.8
54439;BME280;40347;53.848;27.498;2023-03-31T00:30:50;1004.2;;;4.7;54.8
54439;BME280;40347;53.848;27.498;2023-03-31T00:36:04;1004.1;;;4.7;54.8
54439;BME280;40347;53.848;27.498;2023-03-31T00:41:10;1004;;;4.8;55
54439;BME280;40347;53.848;27.498;2023-03-31T00:45:50;1004;;;4.8;55
54439;BME280;40347;53.848;27.498;2023-03-31T00:51:26;1004;;;4.7;54.8
54439;BME280;40347;53.848;27.498;2023-03-31T00:56:05;1003.8;;;4.7;54.9
54439;BME280;40347;53.848;27.498;2023-03-31T01:00:50;1003.7;;;4.7;54.9
54439;BME280;40347;53.848;27.498;2023-03-31T01:06:10;1003.7;;;4.7;54.9
54439;BME280;40347;53.848;27.498;2023-03-31T01:11:04;1003.7;;;4.7;54.8
54439;BME280;40347;53.848;27.498;2023-03-31T01:16:12;1003.6;;;4.8;55
54439;BME280;40347;53.848;27.498;2023-03-31T01:22:10;1003.5;;;4.8;55.2
54439;BME280;40347;53.848;27.498;2023-03-31T01:30:55;1003.4;;;4.7;54.9
54439;BME280;40347;53.848;27.498;2023-03-31T01:36:09;1003.3;;;4.7;55.1
54439;BME280;40347;53.848;27.498;2023-03-31T01:41:19;1003.3;;;4.7;55.2
54439;BME280;40347;53.848;27.498;2023-03-31T01:45:52;1003.2;;;4.6;55.3
54439;BME280;40347;53.848;27.498;2023-03-31T01:50:52;1003;;;4.6;55.4
54439;BME280;40347;53.848;27.498;2023-03-31T01:55:52;1002.9;;;4.6;55.4
54439;BME280;40347;53.848;27.498;2023-03-31T02:00:51;1002.8;;;4.6;55.7
54439;BME280;40347;53.848;27.498;2023-03-31T02:06:18;1002.8;;;4.5;55.8
54439;BME280;40347;53.848;27.498;2023-03-31T02:11:06;1002.7;;;4.4;56
54439;BME280;40347;53.848;27.498;2023-03-31T02:16:05;1002.6;;;4.4;56
54439;BME280;40347;53.848;27.498;2023-03-31T02:21:12;1002.5;;;4.3;56.2
54439;BME280;40347;53.848;27.498;2023-03-31T02:25:50;1002.5;;;4.3;56.2
54439;BME280;40347;53.848;27.498;2023-03-31T02:30:52;1002.4;;;4.3;56.3
54439;BME280;40347;53.848;27.498;2023-03-31T02:35:50;1002.4;;;4.3;56.5
54439;BME280;40347;53.848;27.498;2023-03-31T02:41:04;1002.3;;;4.3;56.5
54439;BME280;40347;53.848;27.498;2023-03-31T02:46:04;1002.3;;;4.3;56.5
54439;BME280;40347;53.848;27.498;2023-03-31T02:51:09;1002.2;;;4.2;56.7
54439;BME280;40347;53.848;27.498;2023-03-31T02:56:30;1002.2;;;4.3;56.8
54439;BME280;40347;53.848;27.498;2023-03-31T03:00:57;1002.2;;;4.4;57
54439;BME280;40347;53.848;27.498;2023-03-31T03:06:04;1002.2;;;4.4;56.9
54439;BME280;40347;53.848;27.498;2023-03-31T03:11:21;1002.1;;;4.5;56.7
54439;BME280;40347;53.848;27.498;2023-03-31T03:16:05;1002.1;;;4.5;56.9
54439;BME280;40347;53.848;27.498;2023-03-31T03:20:50;1002;;;4.5;56.9
54439;BME280;40347;53.848;27.498;2023-03-31T03:26:04;1002;;;4.5;56.8
54439;BME280;40347;53.848;27.498;2023-03-31T03:31:02;1001.9;;;4.5;57
54439;BME280;40347;53.848;27.498;2023-03-31T03:35:58;1001.8;;;4.5;57.2
54439;BME280;40347;53.848;27.498;2023-03-31T03:41:04;1001.8;;;4.5;57.4
54439;BME280;40347;53.848;27.498;2023-03-31T03:46:18;1001.7;;;4.5;57.7
54439;BME280;40347;53.848;27.498;2023-03-31T03:50:58;1001.6;;;4.4;57.4
54439;BME280;40347;53.848;27.498;2023-03-31T03:56:04;1001.6;;;4.5;57.3
54439;BME280;40347;53.848;27.498;2023-03-31T04:00:50;1001.6;;;4.6;57.2
54439;BME280;40347;53.848;27.498;2023-03-31T04:06:04;1001.4;;;4.6;57.2
54439;BME280;40347;53.848;27.498;2023-03-31T04:11:18;1001.5;;;4.6;57.3
54439;BME280;40347;53.848;27.498;2023-03-31T04:15:58;1001.4;;;4.6;57.4
54439;BME280;40347;53.848;27.498;2023-03-31T04:20:50;1001.4;;;4.7;57.5
54439;BME280;40347;53.848;27.498;2023-03-31T04:25:50;1001.3;;;4.6;57.4
54439;BME280;40347;53.848;27.498;2023-03-31T04:30:50;1001.3;;;4.7;57.3
54439;BME280;40347;53.848;27.498;2023-03-31T04:36:18;1001.3;;;4.8;57.2
54439;BME280;40347;53.848;27.498;2023-03-31T04:40:58;1001.3;;;4.8;57.3
54439;BME280;40347;53.848;27.498;2023-03-31T04:46:04;1001.3;;;4.8;57.5
54439;BME280;40347;53.848;27.498;2023-03-31T04:50:50;1001.1;;;4.9;57.6
54439;BME280;40347;53.848;27.498;2023-03-31T04:55:50;1001.1;;;5;57.4
54439;BME280;40347;53.848;27.498;2023-03-31T05:01:04;1001.1;;;5;57.3
54439;BME280;40347;53.848;27.498;2023-03-31T05:05:58;1001.1;;;5.1;57.2
54439;BME280;40347;53.848;27.498;2023-03-31T05:10:50;1001.1;;;5.3;57.1
54439;BME280;40347;53.848;27.498;2023-03-31T05:15:56;1001;;;5.5;56.8
54439;BME280;40347;53.848;27.498;2023-03-31T05:20:50;1000.9;;;5.7;56.5
54439;BME280;40347;53.848;27.498;2023-03-31T05:26:18;1000.9;;;5.8;56.2
54439;BME280;40347;53.848;27.498;2023-03-31T05:30:58;1000.8;;;5.9;56.1
54439;BME280;40347;53.848;27.498;2023-03-31T05:35:50;1000.8;;;6.1;55.9
54439;BME280;40347;53.848;27.498;2023-03-31T05:40:50;1000.8;;;6.1;55.8
54439;BME280;40347;53.848;27.498;2023-03-31T05:45:50;1000.7;;;6.2;55.8
54439;BME280;40347;53.848;27.498;2023-03-31T05:51:04;1000.7;;;6.3;55.6
54439;BME280;40347;53.848;27.498;2023-03-31T05:56:12;1000.6;;;6.3;55.6
54439;BME280;40347;53.848;27.498;2023-03-31T06:00:50;1000.6;;;6.4;55.6
54439;BME280;40347;53.848;27.498;2023-03-31T06:06:12;1000.6;;;6.6;55.5
54439;BME280;40347;53.848;27.498;2023-03-31T06:11:13;1000.6;;;6.7;55.2
54439;BME280;40347;53.848;27.498;2023-03-31T06:15:52;1000.5;;;6.8;55.2
54439;BME280;40347;53.848;27.498;2023-03-31T06:20:56;1000.5;;;6.9;55
54439;BME280;40347;53.848;27.498;2023-03-31T06:26:04;1000.4;;;7;54.9
54439;BME280;40347;53.848;27.498;2023-03-31T06:31:10;1000.4;;;7;54.7
54439;BME280;40347;53.848;27.498;2023-03-31T06:35:50;1000.4;;;7;54.7
54439;BME280;40347;53.848;27.498;2023-03-31T06:41:04;1000.3;;;7.1;54.8
54439;BME280;40347;53.848;27.498;2023-03-31T06:45:56;1000.3;;;7.4;54.7
54439;BME280;40347;53.848;27.498;2023-03-31T06:50:50;1000.2;;;7.6;54.1
54439;BME280;40347;53.848;27.498;2023-03-31T06:55:50;1000.1;;;7.6;53.9
54439;BME280;40347;53.848;27.498;2023-03-31T07:01:04;1000.1;;;7.7;54
54439;BME280;40347;53.848;27.498;2023-03-31T07:06:04;1000.1;;;7.8;54
54439;BME280;40347;53.848;27.498;2023-03-31T07:10:52;1000;;;7.9;54.2
54439;BME280;40347;53.848;27.498;2023-03-31T07:15:50;1000;;;7.9;54.4
54439;BME280;40347;53.848;27.498;2023-03-31T07:20:50;1000;;;7.9;54.4
54439;BME280;40347;53.848;27.498;2023-03-31T07:26:12;1000;;;7.8;54.7
54439;BME280;40347;53.848;27.498;2023-03-31T07:31:18;1000;;;7.7;55.5
54439;BME280;40347;53.848;27.498;2023-03-31T07:36:06;999.9;;;7.8;55.6
54439;BME280;40347;53.848;27.498;2023-03-31T07:41:18;999.9;;;7.7;56
54439;BME280;40347;53.848;27.498;2023-03-31T07:45:50;1000;;;7.7;56.1
54439;BME280;40347;53.848;27.498;2023-03-31T07:50:50;1000;;;7.7;56.5
54439;BME280;40347;53.848;27.498;2023-03-31T07:56:04;999.9;;;7.7;56.4
54439;BME280;40347;53.848;27.498;2023-03-31T08:01:19;999.9;;;7.8;56.2
54439;BME280;40347;53.848;27.498;2023-03-31T08:05:50;999.8;;;8;56.2
54439;BME280;40347;53.848;27.498;2023-03-31T08:10:58;999.8;;;7.9;56.5
54439;BME280;40347;53.848;27.498;2023-03-31T08:16:04;999.7;;;7.8;57
54439;BME280;40347;53.848;27.498;2023-03-31T08:20:50;999.7;;;7.8;57.1
54439;BME280;40347;53.848;27.498;2023-03-31T08:26:07;999.6;;;7.8;57.7
54439;BME280;40347;53.848;27.498;2023-03-31T08:30:50;999.6;;;7.6;58.1
54439;BME280;40347;53.848;27.498;2023-03-31T08:36:00;999.6;;;7.5;58.8
54439;BME280;40347;53.848;27.498;2023-03-31T08:40:50;999.5;;;7.5;58.8
54439;BME280;40347;53.848;27.498;2023-03-31T08:45:50;999.5;;;7.3;59.4
54439;BME280;40347;53.848;27.498;2023-03-31T08:50:51;999.4;;;7.2;60.2
54439;BME280;40347;53.848;27.498;2023-03-31T08:56:05;999.4;;;7;61.2
54439;BME280;40347;53.848;27.498;2023-03-31T09:00:51;999.3;;;7;61.9
54439;BME280;40347;53.848;27.498;2023-03-31T09:05:59;999.3;;;7.2;62.2
54439;BME280;40347;53.848;27.498;2023-03-31T09:11:08;999.2;;;7.5;62.4
54439;BME280;40347;53.848;27.498;2023-03-31T09:15:58;999.1;;;7.7;62.1
54439;BME280;40347;53.848;27.498;2023-03-31T09:21:05;999.1;;;7.8;61.6
54439;BME280;40347;53.848;27.498;2023-03-31T09:26:04;999;;;7.9;61.4
54439;BME280;40347;53.848;27.498;2023-03-31T09:30:58;999;;;7.9;61.3
54439;BME280;40347;53.848;27.498;2023-03-31T09:35:50;999;;;7.9;60.9
54439;BME280;40347;53.848;27.498;2023-03-31T09:40:50;999;;;7.8;61.1
54439;BME280;40347;53.848;27.498;2023-03-31T09:46:34;999;;;7.8;61.7
54439;BME280;40347;53.848;27.498;2023-03-31T09:51:27;998.9;;;7.8;61.8
54439;BME280;40347;53.848;27.498;2023-03-31T09:56:12;998.9;;;7.7;62.2
54439;BME280;40347;53.848;27.498;2023-03-31T10:00:58;998.8;;;7.6;62.7
54439;BME280;40347;53.848;27.498;2023-03-31T10:05:58;998.8;;;7.6;63.5
54439;BME280;40347;53.848;27.498;2023-03-31T10:10:50;998.8;;;7.6;63.4
54439;BME280;40347;53.848;27.498;2023-03-31T10:15:51;998.7;;;7.4;64.2
54439;BME280;40347;53.848;27.498;2023-03-31T10:20:50;998.7;;;7.3;64.2
54439;BME280;40347;53.848;27.498;2023-03-31T10:25:50;998.7;;;7.1;63.7
54439;BME280;40347;53.848;27.498;2023-03-31T10:31:06;998.7;;;6.8;64.6
54439;BME280;40347;53.848;27.498;2023-03-31T10:35:53;998.6;;;6.7;65.4
54439;BME280;40347;53.848;27.498;2023-03-31T10:41:10;998.6;;;6.8;66.1
54439;BME280;40347;53.848;27.498;2023-03-31T10:46:04;998.5;;;6.8;66.5
54439;BME280;40347;53.848;27.498;2023-03-31T10:50:50;998.5;;;6.7;65.9
54439;BME280;40347;53.848;27.498;2023-03-31T10:56:12;998.5;;;6.6;67.1
54439;BME280;40347;53.848;27.498;2023-03-31T11:01:07;998.5;;;6.5;67.8
54439;BME280;40347;53.848;27.498;2023-03-31T11:06:25;998.5;;;6.5;67.9
54439;BME280;40347;53.848;27.498;2023-03-31T11:11:02;998.5;;;6.6;68
54439;BME280;40347;53.848;27.498;2023-03-31T11:16:06;998.4;;;6.5;68.1
54439;BME280;40347;53.848;27.498;2023-03-31T11:21:19;998.3;;;6.5;68
54439;BME280;40347;53.848;27.498;2023-03-31T11:26:28;998.3;;;6.5;68.3
54439;BME280;40347;53.848;27.498;2023-03-31T11:31:08;998.3;;;6.5;68.5
54439;BME280;40347;53.848;27.498;2023-03-31T11:36:04;998.3;;;6.5;68.8
54439;BME280;40347;53.848;27.498;2023-03-31T11:40:53;998.3;;;6.5;68.4
54439;BME280;40347;53.848;27.498;2023-03-31T11:45:51;998.3;;;6.4;68.6
54439;BME280;40347;53.848;27.498;2023-03-31T11:50:50;998.3;;;6.3;68.3
54439;BME280;40347;53.848;27.498;2023-03-31T11:56:10;998.2;;;6.3;68.5
54439;BME280;40347;53.848;27.498;2023-03-31T12:00:50;998.2;;;6.3;68.6
54439;BME280;40347;53.848;27.498;2023-03-31T12:05:50;998.1;;;6.3;68.9
54439;BME280;40347;53.848;27.498;2023-03-31T12:11:07;998.1;;;6.3;68.9
54439;BME280;40347;53.848;27.498;2023-03-31T12:16:05;998;;;6.3;69.3
54439;BME280;40347;53.848;27.498;2023-03-31T12:20:59;998;;;6.2;69.6
54439;BME280;40347;53.848;27.498;2023-03-31T12:25:51;997.9;;;6.2;69.8
54439;BME280;40347;53.848;27.498;2023-03-31T12:30:58;997.9;;;6.2;69.7
54439;BME280;40347;53.848;27.498;2023-03-31T12:36:03;997.9;;;6.1;70
54439;BME280;40347;53.848;27.498;2023-03-31T12:41:19;997.9;;;6;70.3
54439;BME280;40347;53.848;27.498;2023-03-31T12:46:00;997.8;;;6;71
54439;BME280;40347;53.848;27.498;2023-03-31T12:51:16;997.8;;;6;71.1
54439;BME280;40347;53.848;27.498;2023-03-31T12:56:12;997.8;;;6;71
54439;BME280;40347;53.848;27.498;2023-03-31T13:01:02;997.7;;;5.9;71.3
54439;BME280;40347;53.848;27.498;2023-03-31T13:05:50;997.7;;;5.8;71.5
54439;BME280;40347;53.848;27.498;2023-03-31T13:11:10;997.6;;;5.8;71.5
54439;BME280;40347;53.848;27.498;2023-03-31T13:16:04;997.6;;;5.9;71.9
54439;BME280;40347;53.848;27.498;2023-03-31T13:21:04;997.6;;;5.8;71.9
54439;BME280;40347;53.848;27.498;2023-03-31T13:25:58;997.6;;;5.8;72.1
54439;BME280;40347;53.848;27.498;2023-03-31T13:31:05;997.6;;;5.8;72
54439;BME280;40347;53.848;27.498;2023-03-31T13:35:51;997.6;;;5.8;72.4
54439;BME280;40347;53.848;27.498;2023-03-31T13:41:07;997.5;;;5.8;72.5
54439;BME280;40347;53.848;27.498;2023-03-31T13:46:04;997.5;;;5.9;72.4
54439;BME280;40347;53.848;27.498;2023-03-31T13:51:23;997.4;;;6;72.3
54439;BME280;40347;53.848;27.498;2023-03-31T13:55:54;997.4;;;6;72.2
54439;BME280;40347;53.848;27.498;2023-03-31T14:01:30;997.3;;;5.9;72.4
54439;BME280;40347;53.848;27.498;2023-03-31T14:05:52;997.3;;;5.9;72.1
54439;BME280;40347;53.848;27.498;2023-03-31T14:11:14;997.2;;;6;72.6
54439;BME280;40347;53.848;27.498;2023-03-31T14:15:51;997.2;;;6.1;72.4
54439;BME280;40347;53.848;27.498;2023-03-31T14:21:21;997.2;;;6.1;72.2
54439;BME280;40347;53.848;27.498;2023-03-31T14:26:14;997.1;;;6.2;72
54439;BME280;40347;53.848;27.498;2023-03-31T14:31:27;997.1;;;6.3;71.8
54439;BME280;40347;53.848;27.498;2023-03-31T14:36:00;997;;;6.4;71.9
54439;BME280;40347;53.848;27.498;2023-03-31T14:40:50;997;;;6.5;71.7
54439;BME280;40347;53.848;27.498;2023-03-31T14:46:05;997;;;6.7;71.5
54439;BME280;40347;53.848;27.498;2023-03-31T14:50:59;996.9;;;6.8;71.6
54439;BME280;40347;53.848;27.498;2023-03-31T14:55:50;996.9;;;6.8;71.1
54439;BME280;40347;53.848;27.498;2023-03-31T15:01:05;997;;;6.7;71.4
54439;BME280;40347;53.848;27.498;2023-03-31T15:05:50;997;;;6.6;71.3
54439;BME280;40347;53.848;27.498;2023-03-31T15:10:51;996.9;;;6.6;71.6
54439;BME280;40347;53.848;27.498;2023-03-31T15:15:58;997;;;6.6;71.7
54439;BME280;40347;53.848;27.498;2023-03-31T15:21:04;996.9;;;6.5;71.9
54439;BME280;40347;53.848;27.498;2023-03-31T15:25:59;996.8;;;6.4;72
54439;BME280;40347;53.848;27.498;2023-03-31T15:31:14;996.8;;;6.4;72.2
54439;BME280;40347;53.848;27.498;2023-03-31T15:36:10;996.8;;;6.4;72.4
54439;BME280;40347;53.848;27.498;2023-03-31T15:40:51;996.8;;;6.4;72.3
54439;BME280;40347;53.848;27.498;2023-03-31T15:46:18;996.8;;;6.4;72.3
54439;BME280;40347;53.848;27.498;2023-03-31T15:50:50;996.8;;;6.3;72.4
54439;BME280;40347;53.848;27.498;2023-03-31T15:55:58;996.8;;;6.3;72.6
54439;BME280;40347;53.848;27.498;2023-03-31T16:01:04;996.8;;;6.2;72.6
54439;BME280;40347;53.848;27.498;2023-03-31T16:05:59;996.7;;;6.2;73.1
54439;BME280;40347;53.848;27.498;2023-03-31T16:11:05;996.7;;;6.2;72.9
54439;BME280;40347;53.848;27.498;2023-03-31T16:15:56;996.7;;;6.2;72.6
54439;BME280;40347;53.848;27.498;2023-03-31T16:20:59;996.6;;;6.1;72.8
54439;BME280;40347;53.848;27.498;2023-03-31T16:25:50;996.6;;;6.1;72.8
54439;BME280;40347;53.848;27.498;2023-03-31T16:31:25;996.6;;;6.2;72.8
54439;BME280;40347;53.848;27.498;2023-03-31T16:35:51;996.6;;;6.2;72.8
54439;BME280;40347;53.848;27.498;2023-03-31T16:40:51;996.6;;;6.2;72.8
54439;BME280;40347;53.848;27.498;2023-03-31T16:45:51;996.7;;;6.3;72.9
54439;BME280;40347;53.848;27.498;2023-03-31T16:51:10;996.7;;;6.2;72.7
54439;BME280;40347;53.848;27.498;2023-03-31T16:55:50;996.7;;;6.3;72.8
54439;BME280;40347;53.848;27.498;2023-03-31T17:01:05;996.8;;;6.4;72.8
54439;BME280;40347;53.848;27.498;2023-03-31T17:05:51;996.8;;;6.4;72.9
54439;BME280;40347;53.848;27.498;2023-03-31T17:10:59;996.8;;;6.4;72.9
54439;BME280;40347;53.848;27.498;2023-03-31T17:16:05;996.8;;;6.5;72.7
54439;BME280;40347;53.848;27.498;2023-03-31T17:20:50;996.7;;;6.5;72.8
54439;BME280;40347;53.848;27.498;2023-03-31T17:25:51;996.7;;;6.5;72.9
54439;BME280;40347;53.848;27.498;2023-03-31T17:30:50;996.7;;;6.5;73
54439;BME280;40347;53.848;27.498;2023-03-31T17:35:58;996.6;;;6.5;73.2
54439;BME280;40347;53.848;27.498;2023-03-31T17:41:05;996.6;;;6.4;73.3
54439;BME280;40347;53.848;27.498;2023-03-31T17:45:50;996.6;;;6.5;73.5
54439;BME280;40347;53.848;27.498;2023-03-31T17:50:50;996.6;;;6.5;73.6
54439;BME280;40347;53.848;27.498;2023-03-31T17:55:50;996.6;;;6.6;73.5
54439;BME280;40347;53.848;27.498;2023-03-31T18:01:05;996.6;;;6.6;73.2
54439;BME280;40347;53.848;27.498;2023-03-31T18:05:50;996.6;;;6.6;73.3
54439;BME280;40347;53.848;27.498;2023-03-31T18:11:14;996.6;;;6.5;73.4
54439;BME280;40347;53.848;27.498;2023-03-31T18:15:50;996.7;;;6.6;73.6
54439;BME280;40347;53.848;27.498;2023-03-31T18:20:50;996.6;;;6.7;73.6
54439;BME280;40347;53.848;27.498;2023-03-31T18:25:50;996.6;;;6.6;73.5
54439;BME280;40347;53.848;27.498;2023-03-31T18:30:50;996.6;;;6.5;73.6
54439;BME280;40347;53.848;27.498;2023-03-31T18:35:59;996.6;;;6.5;73.7
54439;BME280;40347;53.848;27.498;2023-03-31T18:41:18;996.5;;;6.5;73.7
54439;BME280;40347;53.848;27.498;2023-03-31T18:46:04;996.5;;;6.5;73.9
54439;BME280;40347;53.848;27.498;2023-03-31T18:50:51;996.5;;;6.5;73.9
54439;BME280;40347;53.848;27.498;2023-03-31T18:55:50;996.5;;;6.4;74
54439;BME280;40347;53.848;27.498;2023-03-31T19:01:12;996.4;;;6.4;74
54439;BME280;40347;53.848;27.498;2023-03-31T19:05:50;996.4;;;6.5;74.2
54439;BME280;40347;53.848;27.498;2023-03-31T19:10:50;996.4;;;6.5;74.2
54439;BME280;40347;53.848;27.498;2023-03-31T19:16:04;996.4;;;6.5;74.2
54439;BME280;40347;53.848;27.498;2023-03-31T19:20:50;996.4;;;6.6;74
54439;BME280;40347;53.848;27.498;2023-03-31T19:26:12;996.4;;;6.6;73.8
54439;BME280;40347;53.848;27.498;2023-03-31T19:31:02;996.3;;;6.5;73.8
54439;BME280;40347;53.848;27.498;2023-03-31T19:35:50;996.3;;;6.6;73.8
54439;BME280;40347;53.848;27.498;2023-03-31T19:40:50;996.3;;;6.6;73.9
54439;BME280;40347;53.848;27.498;2023-03-31T19:46:04;996.3;;;6.6;73.9
54439;BME280;40347;53.848;27.498;2023-03-31T19:50:59;996.2;;;6.6;73.9
54439;BME280;40347;53.848;27.498;2023-03-31T19:56:05;996.1;;;6.6;74
54439;BME280;40347;53.848;27.498;2023-03-31T20:00:50;996.2;;;6.7;74
54439;BME280;40347;53.848;27.498;2023-03-31T20:06:19;996.2;;;6.8;74.1
54439;BME280;40347;53.848;27.498;2023-03-31T20:11:11;996.1;;;6.8;73.9
54439;BME280;40347;53.848;27.498;2023-03-31T20:16:07;996;;;6.8;73.9
54439;BME280;40347;53.848;27.498;2023-03-31T20:21:21;995.9;;;6.8;74
54439;BME280;40347;53.848;27.498;2023-03-31T20:25:50;995.9;;;6.8;74.2
54439;BME280;40347;53.848;27.498;2023-03-31T20:30:50;995.9;;;6.8;74.2
54439;BME280;40347;53.848;27.498;2023-03-31T20:36:05;995.8;;;6.9;74
54439;BME280;40347;53.848;27.498;2023-03-31T20:40:58;995.7;;;7;73.8
54439;BME280;40347;53.848;27.498;2023-03-31T20:45:52;995.9;;;6.9;73.5
54439;BME280;40347;53.848;27.498;2023-03-31T20:50:56;996;;;7;73.4
54439;BME280;40347;53.848;27.498;2023-03-31T20:55:50;995.9;;;6.9;73.3
54439;BME280;40347;53.848;27.498;2023-03-31T21:00:54;995.9;;;7;73.2
54439;BME280;40347;53.848;27.498;2023-03-31T21:06:00;995.9;;;7.1;73.2
54439;BME280;40347;53.848;27.498;2023-03-31T21:10:50;995.8;;;7;73
54439;BME280;40347;53.848;27.498;2023-03-31T21:15:56;995.8;;;7;72.8
54439;BME280;40347;53.848;27.498;2023-03-31T21:20:50;995.8;;;7;72.8
54439;BME280;40347;53.848;27.498;2023-03-31T21:26:04;995.8;;;7;72.9
54439;BME280;40347;53.848;27.498;2023-03-31T21:30:59;995.8;;;7;72.9
54439;BME280;40347;53.848;27.498;2023-03-31T21:35:50;995.8;;;7;72.8
54439;BME280;40347;53.848;27.498;2023-03-31T21:40:50;995.8;;;7;72.8
54439;BME280;40347;53.848;27.498;2023-03-31T21:46:07;995.7;;;7;72.7
54439;BME280;40347;53.848;27.498;2023-03-31T21:50:50;995.6;;;7;72.7
54439;BME280;40347;53.848;27.498;2023-03-31T21:55:58;995.7;;;7;72.7
54439;BME280;40347;53.848;27.498;2023-03-31T22:01:04;995.6;;;7;72.8
54439;BME280;40347;53.848;27.498;2023-03-31T22:05:50;995.6;;;7;72.7
54439;BME280;40347;53.848;27.498;2023-03-31T22:11:07;995.6;;;7;72.8
54439;BME280;40347;53.848;27.498;2023-03-31T22:16:04;995.5;;;7;72.8
54439;BME280;40347;53.848;27.498;2023-03-31T22:21:11;995.4;;;7;73
54439;BME280;40347;53.848;27.498;2023-03-31T22:26:18;995.4;;;7;73.1
54439;BME280;40347;53.848;27.498;2023-03-31T22:30:56;995.4;;;7.1;73.5
54439;BME280;40347;53.848;27.498;2023-03-31T22:35:50;995.3;;;7;73.5
54439;BME280;40347;53.848;27.498;2023-03-31T22:40:56;995.3;;;7.1;73.8
54439;BME280;40347;53.848;27.498;2023-03-31T22:46:00;995.4;;;7;73.9
54439;BME280;40347;53.848;27.498;2023-03-31T22:51:10;995.4;;;7;74.1
54439;BME280;40347;53.848;27.498;2023-03-31T22:56:01;995.4;;;7.1;74.1
54439;BME280;40347;53.848;27.498;2023-03-31T23:01:06;995.4;;;7.1;74
54439;BME280;40347;53.848;27.498;2023-03-31T23:06:18;995.4;;;7.1;74
54439;BME280;40347;53.848;27.498;2023-03-31T23:11:14;995.3;;;7.2;74
54439;BME280;40347;53.848;27.498;2023-03-31T23:16:04;995.4;;;7.3;74
54439;BME280;40347;53.848;27.498;2023-03-31T23:20:50;995.4;;;7.4;73.9
54439;BME280;40347;53.848;27.498;2023-03-31T23:26:06;995.3;;;7.4;73.5
54439;BME280;40347;53.848;27.498;2023-03-31T23:31:04;995.3;;;7.4;73.5
54439;BME280;40347;53.848;27.498;2023-03-31T23:36:16;995.3;;;7.4;73.5
54439;BME280;40347;53.848;27.498;2023-03-31T23:40:51;995.3;;;7.5;73.6
54439;BME280;40347;53.848;27.498;2023-03-31T23:45:50;995.4;;;7.5;73.8
54439;BME280;40347;53.848;27.498;2023-03-31T23:50:50;995.3;;;7.5;73.9
54439;BME280;40347;53.848;27.498;2023-03-31T23:56:05;995.3;;;7.5;73.9
